Rouleau, Canada
Current Conditions -  °F | °C
As of 8:00 AM on Thursday 29 Jan 2015 (Local Time) from CYQR Reporting Station
Light Snow Light Snow  
Wind Chill:   Ceiling: 900
Heat Index: 12°   Visibility: 15mi
Dew Point:   Wind: 9mph
Humidity: 85%   Direction: 40°NE
Pressure: 30.47"   Gusts: NA
Location:  50.18°N, 104.9°W
Report Text: CYQR 291400Z 04008KT 15SM -SN OVC009 M11/M13 A3047 RMK SC8 SLP361
Loading
Personal Weather Stations






























Interactive Weather Map New forecast layout! Learn more

10-Day Weather Forecast

Advertisements
Track Severe Weather on mobile